createdAt,value
2018-11-13T00:02:07.022Z,14.07
2018-11-13T00:04:35.792Z,15.40
2018-11-13T00:07:04.581Z,13.17
2018-11-13T00:09:33.400Z,15.03
2018-11-13T00:12:02.278Z,13.90
2018-11-13T00:14:31.297Z,13.70
2018-11-13T00:17:00.062Z,14.77
2018-11-13T00:19:29.102Z,13.77
2018-11-13T00:21:57.822Z,16.77
2018-11-13T00:24:26.586Z,14.57
2018-11-13T00:26:55.697Z,15.13
2018-11-13T00:29:24.504Z,13.70
2018-11-13T00:31:53.258Z,16.00
2018-11-13T00:34:22.012Z,14.40
2018-11-13T00:36:50.758Z,15.70
2018-11-13T00:39:20.119Z,15.40
2018-11-13T00:41:48.340Z,16.83
2018-11-13T00:44:17.092Z,15.43
2018-11-13T00:46:46.419Z,15.57
2018-11-13T00:49:15.255Z,17.33
2018-11-13T00:51:44.014Z,15.73
2018-11-13T00:54:12.789Z,14.53
2018-11-13T00:56:41.538Z,13.90
2018-11-13T00:59:10.286Z,15.70
2018-11-13T01:01:39.063Z,13.60
2018-11-13T01:04:07.923Z,13.50
2018-11-13T01:06:36.662Z,15.23
2018-11-13T01:09:07.197Z,14.27
2018-11-13T01:11:35.946Z,16.33
2018-11-13T01:14:05.502Z,13.63
2018-11-13T01:16:34.460Z,15.10
2018-11-13T01:19:03.302Z,14.77
2018-11-13T01:21:32.183Z,17.07
2018-11-13T01:24:01.122Z,13.50
2018-11-13T01:26:29.722Z,14.00
2018-11-13T01:28:58.506Z,14.40
2018-11-13T01:31:27.310Z,15.93
2018-11-13T01:33:56.055Z,15.37
2018-11-13T01:36:24.922Z,14.17
2018-11-13T01:38:54.847Z,17.67
2018-11-13T01:41:23.651Z,16.93
2018-11-13T01:43:52.473Z,13.73
2018-11-13T01:46:21.261Z,16.23
2018-11-13T01:48:50.098Z,15.90
2018-11-13T01:51:18.874Z,15.03
2018-11-13T01:53:47.633Z,16.10
2018-11-13T01:56:16.435Z,15.17
2018-11-13T01:58:45.291Z,13.97
2018-11-13T02:01:14.049Z,14.37
2018-11-13T02:03:42.838Z,16.40
2018-11-13T02:06:12.142Z,15.10
2018-11-13T02:08:40.887Z,16.00
2018-11-13T02:11:09.690Z,15.67
2018-11-13T02:13:38.405Z,14.90
2018-11-13T02:16:08.262Z,15.03
2018-11-13T02:18:37.035Z,14.57
2018-11-13T02:21:06.031Z,17.10
2018-11-13T02:23:35.699Z,15.40
2018-11-13T02:26:04.801Z,15.70
2018-11-13T02:28:33.521Z,14.57
2018-11-13T02:31:02.313Z,14.97
2018-11-13T02:33:31.678Z,14.80
2018-11-13T02:36:00.478Z,17.97
2018-11-13T02:38:29.199Z,16.40
2018-11-13T02:40:58.011Z,17.57
2018-11-13T02:43:26.798Z,16.50
2018-11-13T02:45:55.558Z,15.43
2018-11-13T02:48:24.324Z,17.03
2018-11-13T02:50:53.127Z,17.63
2018-11-13T02:53:22.712Z,19.50
2018-11-13T02:55:51.487Z,15.90
2018-11-13T02:58:20.230Z,17.43
2018-11-13T03:00:49.004Z,14.83
2018-11-13T03:03:17.752Z,16.10
2018-11-13T03:05:47.508Z,19.07
2018-11-13T03:08:16.317Z,16.80
2018-11-13T03:10:45.074Z,17.57
2018-11-13T03:13:13.915Z,19.80
2018-11-13T03:15:42.690Z,17.93
2018-11-13T03:18:12.310Z,15.60
2018-11-13T03:20:41.896Z,18.20
2018-11-13T03:23:10.651Z,21.67
2018-11-13T03:25:39.560Z,16.83
2018-11-13T03:28:08.295Z,16.87
2018-11-13T03:30:37.029Z,17.63
2018-11-13T03:33:05.840Z,16.87
2018-11-13T03:35:34.594Z,18.33
2018-11-13T03:38:03.390Z,16.43
2018-11-13T03:40:32.159Z,14.83
2018-11-13T03:43:00.893Z,18.30
2018-11-13T03:45:29.704Z,14.97
2018-11-13T03:47:58.424Z,15.43
2018-11-13T03:50:27.189Z,14.77
2018-11-13T03:52:55.937Z,14.57
2018-11-13T03:55:24.770Z,17.13
2018-11-13T03:57:53.601Z,17.73
2018-11-13T04:00:23.281Z,18.27
2018-11-13T04:02:52.078Z,16.00
2018-11-13T04:05:21.660Z,17.47
2018-11-13T04:07:52.555Z,22.67
2018-11-13T04:10:21.959Z,17.43
2018-11-13T04:12:50.859Z,17.13
2018-11-13T04:15:21.180Z,17.87
2018-11-13T04:17:50.107Z,14.87
2018-11-13T04:20:19.995Z,17.73
2018-11-13T04:22:49.106Z,18.23
2018-11-13T04:25:18.893Z,17.83
2018-11-13T04:27:47.650Z,15.67
2018-11-13T04:30:17.629Z,17.97
2018-11-13T04:32:46.515Z,17.90
2018-11-13T04:35:16.425Z,16.10
2018-11-13T04:37:45.195Z,15.13
2018-11-13T04:40:21.000Z,16.17
2018-11-13T04:42:51.058Z,15.63
2018-11-13T04:45:21.724Z,19.27
2018-11-13T04:47:51.031Z,16.07
2018-11-13T04:50:20.891Z,17.33
2018-11-13T04:52:49.725Z,16.43
2018-11-13T04:55:19.190Z,15.53
2018-11-13T04:57:48.912Z,19.60
2018-11-13T05:00:19.970Z,19.47
2018-11-13T05:02:48.774Z,20.50
2018-11-13T05:05:18.234Z,20.07
2018-11-13T05:07:49.253Z,18.00
2018-11-13T05:10:18.187Z,20.50
2018-11-13T05:12:48.588Z,19.30
2018-11-13T05:15:17.376Z,22.03
2018-11-13T05:17:46.896Z,18.60
2018-11-13T05:20:16.424Z,19.67
2018-11-13T05:22:45.244Z,20.17
2018-11-13T05:25:16.699Z,21.47
2018-11-13T05:27:45.429Z,19.53
2018-11-13T05:30:15.535Z,27.73
2018-11-13T05:32:44.325Z,21.30
2018-11-13T05:35:14.381Z,19.20
2018-11-13T05:37:43.799Z,16.20
2018-11-13T05:40:15.465Z,19.03
2018-11-13T05:42:44.395Z,22.00
2018-11-13T05:45:15.554Z,21.27
2018-11-13T05:47:44.334Z,18.70
2018-11-13T05:50:14.190Z,19.63
2018-11-13T05:52:43.791Z,17.83
2018-11-13T05:55:13.090Z,18.77
2018-11-13T05:57:41.912Z,20.33
2018-11-13T06:00:12.836Z,19.33
2018-11-13T06:02:43.108Z,22.23
2018-11-13T06:05:12.584Z,18.57
2018-11-13T06:07:41.465Z,22.70
2018-11-13T06:10:12.153Z,20.20
2018-11-13T06:12:41.118Z,23.77
2018-11-13T06:15:10.100Z,25.27
2018-11-13T06:17:39.140Z,20.40
2018-11-13T06:20:09.618Z,24.43
2018-11-13T06:22:38.639Z,24.83
2018-11-13T06:25:09.251Z,28.37
2018-11-13T06:27:38.258Z,26.07
2018-11-13T06:30:14.368Z,25.60
2018-11-13T06:35:18.727Z,24.43
2018-11-13T06:37:47.564Z,22.17
2018-11-13T06:40:16.314Z,24.97
2018-11-13T06:42:45.090Z,23.77
2018-11-13T06:45:20.052Z,20.90
2018-11-13T06:47:49.536Z,22.57
2018-11-13T06:50:18.457Z,27.50
2018-11-13T06:52:48.242Z,27.03
2018-11-13T06:55:35.500Z,29.07
2018-11-13T06:58:04.954Z,26.87
2018-11-13T07:00:34.236Z,26.10
2018-11-13T07:03:03.222Z,24.10
2018-11-13T07:05:32.150Z,33.20
2018-11-13T07:08:01.882Z,28.13
2018-11-13T07:10:30.839Z,31.07
2018-11-13T07:12:59.781Z,26.57
2018-11-13T07:15:29.826Z,29.23
2018-11-13T07:18:00.730Z,28.87
2018-11-13T07:20:31.798Z,36.90
2018-11-13T07:23:07.870Z,40.00
2018-11-13T07:25:36.705Z,36.87
2018-11-13T07:28:06.803Z,34.10
2018-11-13T07:30:36.286Z,29.47
2018-11-13T07:33:05.576Z,34.13
2018-11-13T07:35:34.389Z,33.37
2018-11-13T07:38:03.221Z,31.27
2018-11-13T07:40:32.014Z,36.20
2018-11-13T07:43:00.847Z,33.60
2018-11-13T07:45:29.973Z,30.13
2018-11-13T07:47:59.479Z,32.63
2018-11-13T07:50:28.683Z,28.70
2018-11-13T07:52:57.520Z,28.77
2018-11-13T07:55:26.441Z,30.20
2018-11-13T07:57:56.429Z,36.00
2018-11-13T08:00:25.337Z,39.43
2018-11-13T08:02:55.349Z,40.97
2018-11-13T08:05:24.143Z,34.37
2018-11-13T08:07:52.889Z,34.20
2018-11-13T08:10:22.252Z,34.93
2018-11-13T08:12:51.219Z,35.83
2018-11-13T08:15:19.940Z,35.60
2018-11-13T08:17:48.709Z,35.97
2018-11-13T08:20:17.465Z,32.90
2018-11-13T08:22:46.249Z,35.17
2018-11-13T08:25:15.157Z,41.37
2018-11-13T08:27:44.304Z,34.53
2018-11-13T08:30:15.546Z,33.87
2018-11-13T08:32:47.076Z,34.93
2018-11-13T08:35:16.563Z,36.50
2018-11-13T08:37:45.786Z,31.30
2018-11-13T08:40:15.983Z,38.20
2018-11-13T08:42:45.545Z,31.13
2018-11-13T08:45:15.075Z,35.90
2018-11-13T08:47:43.912Z,32.27
2018-11-13T08:50:13.477Z,40.17
2018-11-13T08:52:43.365Z,33.83
2018-11-13T08:55:12.630Z,31.80
2018-11-13T08:57:41.576Z,35.23
2018-11-13T09:00:12.512Z,34.87
2018-11-13T09:02:42.284Z,35.10
2018-11-13T09:05:11.560Z,36.03
2018-11-13T09:07:40.826Z,36.00
2018-11-13T09:10:10.914Z,33.77
2018-11-13T09:12:41.168Z,35.93
2018-11-13T09:15:13.660Z,31.93
2018-11-13T09:17:43.744Z,32.57
2018-11-13T09:20:14.105Z,32.93
2018-11-13T09:22:42.919Z,34.57
2018-11-13T09:25:15.067Z,38.13
2018-11-13T09:27:43.968Z,38.07
2018-11-13T09:30:14.986Z,33.67
2018-11-13T09:32:44.132Z,35.13
2018-11-13T09:35:14.169Z,39.80
2018-11-13T09:37:43.611Z,41.27
2018-11-13T09:40:14.295Z,44.63
2018-11-13T09:42:43.687Z,38.87
2018-11-13T09:45:13.521Z,40.10
2018-11-13T09:47:42.326Z,42.70
2018-11-13T09:50:13.737Z,45.50
2018-11-13T09:52:43.697Z,44.40
2018-11-13T09:55:14.727Z,40.77
2018-11-13T09:57:43.550Z,43.23
2018-11-13T10:00:16.418Z,49.60
2018-11-13T10:02:47.325Z,40.27
2018-11-13T10:05:16.656Z,42.50
2018-11-13T10:07:45.935Z,44.23
2018-11-13T10:10:15.518Z,44.60
2018-11-13T10:12:44.313Z,43.50
2018-11-13T10:15:15.184Z,46.40
2018-11-13T10:17:44.109Z,43.07
2018-11-13T10:20:14.221Z,46.17
2018-11-13T10:22:44.581Z,43.07
2018-11-13T10:25:13.697Z,50.37
2018-11-13T10:27:42.932Z,51.67
2018-11-13T10:30:14.836Z,41.97
2018-11-13T10:32:44.321Z,40.20
2018-11-13T10:35:13.943Z,39.17
2018-11-13T10:37:42.774Z,41.67
2018-11-13T10:40:12.983Z,40.00
2018-11-13T10:42:42.298Z,42.47
2018-11-13T10:45:13.844Z,37.70
2018-11-13T10:47:42.932Z,39.57
2018-11-13T10:50:16.007Z,35.23
2018-11-13T10:52:44.864Z,33.33
2018-11-13T10:55:13.766Z,37.33
2018-11-13T10:57:42.912Z,34.30
2018-11-13T11:00:19.148Z,33.30
2018-11-13T11:02:53.622Z,38.27
2018-11-13T11:05:24.848Z,34.67
2018-11-13T11:07:54.106Z,42.07
2018-11-13T11:10:24.028Z,40.07
2018-11-13T11:12:52.902Z,41.40
2018-11-13T11:15:22.671Z,40.37
2018-11-13T11:17:51.590Z,34.47
2018-11-13T11:20:20.539Z,40.03
2018-11-13T11:22:49.503Z,40.57
2018-11-13T11:25:18.338Z,38.57
2018-11-13T11:27:47.303Z,39.97
2018-11-13T11:30:16.771Z,34.23
2018-11-13T11:32:45.664Z,37.47
2018-11-13T11:35:14.509Z,37.70
2018-11-13T11:37:43.383Z,42.13
2018-11-13T11:40:12.951Z,42.33
2018-11-13T11:42:42.099Z,44.13
2018-11-13T11:45:12.737Z,44.03
2018-11-13T11:47:41.629Z,39.63
2018-11-13T11:50:11.719Z,39.63
2018-11-13T11:52:40.572Z,40.23
2018-11-13T11:55:09.929Z,44.40
2018-11-13T11:57:38.730Z,45.33
2018-11-13T12:00:15.811Z,46.67
2018-11-13T12:02:44.821Z,49.93
2018-11-13T12:05:13.550Z,43.57
2018-11-13T12:07:43.054Z,39.80
2018-11-13T12:10:13.409Z,45.90
2018-11-13T12:12:42.185Z,41.10
2018-11-13T12:15:12.922Z,43.53
2018-11-13T12:17:42.089Z,46.33
2018-11-13T12:20:12.326Z,46.10
2018-11-13T12:22:41.317Z,39.57
2018-11-13T12:25:12.404Z,40.00
2018-11-13T12:27:42.097Z,51.30
2018-11-13T12:30:12.729Z,46.37
2018-11-13T12:32:41.914Z,45.50
2018-11-13T12:35:12.470Z,50.70
2018-11-13T12:37:41.948Z,41.47
2018-11-13T12:40:14.425Z,46.77
2018-11-13T12:42:43.850Z,42.83
2018-11-13T12:45:12.806Z,46.87
2018-11-13T12:47:42.428Z,51.00
2018-11-13T12:50:12.566Z,40.13
2018-11-13T12:52:41.519Z,41.30
2018-11-13T12:55:12.952Z,42.47
2018-11-13T12:57:41.706Z,46.03
2018-11-13T13:00:13.314Z,42.60
2018-11-13T13:02:42.168Z,43.37
2018-11-13T13:05:11.044Z,37.63
2018-11-13T13:07:40.803Z,42.90
2018-11-13T13:10:11.482Z,39.53
2018-11-13T13:12:40.326Z,46.80
2018-11-13T13:15:12.905Z,40.70
2018-11-13T13:17:41.942Z,44.53
2018-11-13T13:20:14.351Z,40.60
2018-11-13T13:22:44.392Z,42.93
2018-11-13T13:25:14.511Z,37.27
2018-11-13T13:27:43.319Z,33.00
2018-11-13T13:30:14.826Z,35.00
2018-11-13T13:32:44.051Z,40.07
2018-11-13T13:35:44.035Z,33.27
2018-11-13T13:38:12.947Z,37.43
2018-11-13T13:40:42.789Z,34.17
2018-11-13T13:43:12.443Z,35.37
2018-11-13T13:45:42.007Z,37.77
2018-11-13T13:48:10.857Z,33.33
2018-11-13T13:50:40.216Z,30.50
2018-11-13T13:53:10.403Z,29.50
2018-11-13T13:55:39.845Z,24.67
2018-11-13T13:58:08.732Z,29.63
2018-11-13T14:00:37.885Z,31.47
2018-11-13T14:03:07.787Z,22.00
2018-11-13T14:05:37.124Z,29.00
2018-11-13T14:08:07.305Z,29.53
2018-11-13T14:10:36.191Z,25.17
2018-11-13T14:13:05.195Z,21.67
2018-11-13T14:15:34.026Z,26.90
2018-11-13T14:18:02.915Z,21.47
2018-11-13T14:20:31.753Z,22.20
2018-11-13T14:23:00.640Z,28.73
2018-11-13T14:25:29.818Z,23.40
2018-11-13T14:27:58.829Z,20.43
2018-11-13T14:30:29.871Z,20.23
2018-11-13T14:33:01.234Z,21.20
2018-11-13T14:35:30.654Z,20.13
2018-11-13T14:37:59.546Z,24.50
2018-11-13T14:40:30.570Z,20.13
2018-11-13T14:42:59.929Z,22.80
2018-11-13T14:45:29.385Z,23.50
2018-11-13T14:47:58.657Z,23.63
2018-11-13T14:50:29.397Z,22.93
2018-11-13T14:52:59.855Z,23.53
2018-11-13T14:55:32.256Z,24.77
2018-11-13T14:58:02.536Z,22.33
2018-11-13T15:00:33.153Z,22.37
2018-11-13T15:03:03.616Z,25.00
2018-11-13T15:05:33.434Z,20.87
2018-11-13T15:08:04.583Z,17.47
2018-11-13T15:10:37.812Z,18.30
2018-11-13T15:13:07.432Z,19.67
2018-11-13T15:15:36.215Z,21.40
2018-11-13T15:18:05.806Z,18.60
2018-11-13T15:20:34.574Z,17.97
2018-11-13T15:23:03.366Z,21.10
2018-11-13T15:25:32.292Z,20.00
2018-11-13T15:28:01.556Z,17.90
2018-11-13T15:30:31.826Z,16.40
2018-11-13T15:33:06.681Z,19.93
2018-11-13T15:35:36.125Z,19.87
2018-11-13T15:38:06.112Z,19.83
2018-11-13T15:40:35.056Z,19.73
2018-11-13T15:43:03.946Z,18.33
2018-11-13T15:45:33.045Z,22.77
2018-11-13T15:48:02.925Z,20.40
2018-11-13T15:50:34.154Z,19.23
2018-11-13T15:53:03.267Z,14.63
2018-11-13T15:55:33.279Z,8.90
2018-11-13T15:58:02.229Z,6.50
2018-11-13T16:00:32.735Z,5.10
2018-11-13T16:03:03.287Z,2.80
2018-11-13T16:05:34.807Z,3.93
2018-11-13T16:08:04.771Z,1.40
2018-11-13T16:10:34.252Z,2.97
2018-11-13T16:13:03.263Z,2.30
2018-11-13T16:15:32.584Z,1.90
2018-11-13T16:18:02.806Z,3.53
2018-11-13T16:20:31.653Z,3.83
2018-11-13T16:23:01.202Z,2.30
2018-11-13T16:25:30.014Z,2.60
2018-11-13T16:27:58.927Z,4.43
2018-11-13T16:30:30.419Z,3.90
2018-11-13T16:32:59.302Z,3.03
2018-11-13T16:35:29.049Z,4.97
2018-11-13T16:37:58.792Z,4.23
2018-11-13T16:40:29.908Z,5.37
2018-11-13T16:42:59.014Z,6.03
2018-11-13T16:45:29.068Z,6.43
2018-11-13T16:47:58.974Z,5.07
2018-11-13T16:50:29.851Z,4.63
2018-11-13T16:52:59.135Z,3.90
2018-11-13T16:55:33.396Z,6.03
2018-11-13T16:58:03.625Z,7.37
2018-11-13T17:00:32.776Z,2.90
2018-11-13T17:03:02.711Z,4.37
2018-11-13T17:05:32.177Z,7.30
2018-11-13T17:08:00.790Z,10.80
2018-11-13T17:10:30.693Z,5.63
2018-11-13T17:13:00.532Z,4.67
2018-11-13T17:15:30.703Z,4.07
2018-11-13T17:18:00.851Z,3.63
2018-11-13T17:20:29.744Z,3.40
2018-11-13T17:22:58.537Z,4.07
2018-11-13T17:25:29.723Z,3.60
2018-11-13T17:27:58.514Z,2.43
2018-11-13T17:30:28.943Z,2.73
2018-11-13T17:32:59.067Z,3.87
2018-11-13T17:35:28.701Z,3.07
2018-11-13T17:37:59.095Z,2.27
2018-11-13T17:40:29.228Z,2.97
2018-11-13T17:42:59.400Z,5.03
2018-11-13T17:45:29.467Z,5.80
2018-11-13T17:47:58.465Z,1.30
2018-11-13T17:50:35.039Z,2.57
2018-11-13T17:53:05.327Z,1.30
2018-11-13T17:55:34.692Z,2.50
2018-11-13T17:58:05.812Z,1.43
2018-11-13T18:00:36.675Z,1.87
2018-11-13T18:03:06.702Z,1.60
2018-11-13T18:05:36.003Z,1.67
2018-11-13T18:08:05.642Z,2.10
2018-11-13T18:10:35.392Z,1.40
2018-11-13T18:13:04.726Z,1.40
2018-11-13T18:15:34.430Z,1.20
2018-11-13T18:18:05.208Z,2.13
2018-11-13T18:20:35.325Z,2.97
2018-11-13T18:23:04.114Z,2.67
2018-11-13T18:25:32.994Z,1.00
2018-11-13T18:28:02.746Z,1.13
2018-11-13T18:30:32.660Z,1.87
2018-11-13T18:33:02.219Z,1.53
2018-11-13T18:35:32.270Z,1.57
2018-11-13T18:38:02.525Z,1.30
2018-11-13T18:40:31.228Z,2.13
2018-11-13T18:43:01.551Z,1.47
2018-11-13T18:45:33.021Z,1.60
2018-11-13T18:48:01.831Z,4.70
2018-11-13T18:50:32.709Z,3.57
2018-11-13T18:53:01.959Z,2.53
2018-11-13T18:55:30.774Z,3.23
2018-11-13T18:58:00.238Z,2.13
2018-11-13T19:00:31.121Z,4.10
2018-11-13T19:03:02.071Z,2.23
2018-11-13T19:05:30.863Z,2.03
2018-11-13T19:07:59.823Z,2.93
2018-11-13T19:10:35.629Z,4.47
2018-11-13T19:13:06.839Z,4.03
2018-11-13T19:15:37.195Z,1.90
2018-11-13T19:18:06.935Z,2.90
2018-11-13T19:20:35.665Z,3.67
2018-11-13T19:23:04.765Z,3.37
2018-11-13T19:25:34.391Z,3.00
2018-11-13T19:28:03.310Z,3.20
2018-11-13T19:30:32.163Z,6.83
2018-11-13T19:33:00.939Z,3.03
2018-11-13T19:35:30.575Z,2.90
2018-11-13T19:37:59.328Z,3.83
2018-11-13T19:40:29.533Z,4.17
2018-11-13T19:42:59.070Z,4.20
2018-11-13T19:45:27.851Z,8.13
2018-11-13T19:47:56.632Z,4.43
2018-11-13T19:50:27.047Z,4.93
2018-11-13T19:52:55.757Z,5.80
2018-11-13T19:55:25.249Z,6.70
2018-11-13T19:57:54.000Z,6.67
2018-11-13T20:00:25.477Z,6.57
2018-11-13T20:02:55.370Z,6.80
2018-11-13T20:05:24.527Z,6.63
2018-11-13T20:07:53.372Z,6.13
2018-11-13T20:10:24.355Z,4.87
2018-11-13T20:12:54.437Z,6.10
2018-11-13T20:15:25.163Z,6.57
2018-11-13T20:17:53.752Z,7.60
2018-11-13T20:20:24.291Z,7.33
2018-11-13T20:22:54.154Z,7.87
2018-11-13T20:25:24.230Z,6.93
2018-11-13T20:27:53.986Z,4.93
2018-11-13T20:30:25.096Z,8.03
2018-11-13T20:32:53.886Z,4.87
2018-11-13T20:35:22.700Z,8.67
2018-11-13T20:37:52.931Z,6.03
2018-11-13T20:40:24.163Z,6.63
2018-11-13T20:42:54.285Z,10.07
2018-11-13T20:45:23.056Z,6.47
2018-11-13T20:47:52.926Z,6.87
2018-11-13T20:50:24.293Z,8.00
2018-11-13T20:52:53.458Z,8.23
2018-11-13T20:55:22.231Z,8.37
2018-11-13T20:57:51.113Z,10.43
2018-11-13T21:00:27.260Z,6.77
2018-11-13T21:02:56.399Z,10.77
2018-11-13T21:05:25.331Z,8.13
2018-11-13T21:07:54.232Z,10.63
2018-11-13T21:10:23.730Z,7.63
2018-11-13T21:12:52.629Z,10.97
2018-11-13T21:15:22.039Z,10.77
2018-11-13T21:17:50.911Z,11.43
2018-11-13T21:20:20.048Z,12.17
2018-11-13T21:22:48.806Z,11.07
2018-11-13T21:25:20.602Z,9.33
2018-11-13T21:27:50.187Z,9.37
2018-11-13T21:30:20.344Z,6.60
2018-11-13T21:32:49.839Z,7.17
2018-11-13T21:35:18.622Z,7.87
2018-11-13T21:37:49.682Z,7.93
2018-11-13T21:40:25.963Z,9.73
2018-11-13T21:42:55.141Z,10.33
2018-11-13T21:45:24.870Z,7.73
2018-11-13T21:47:54.008Z,8.93
2018-11-13T21:50:24.288Z,9.03
2018-11-13T21:52:53.050Z,5.27
2018-11-13T21:55:23.073Z,6.37
2018-11-13T21:57:51.786Z,6.63
2018-11-13T22:00:29.400Z,6.50
2018-11-13T22:03:02.596Z,7.20
2018-11-13T22:05:32.040Z,8.37
2018-11-13T22:08:00.819Z,6.00
2018-11-13T22:10:29.544Z,9.43
2018-11-13T22:12:58.540Z,7.33
2018-11-13T22:15:28.358Z,5.50
2018-11-13T22:17:57.218Z,7.23
2018-11-13T22:20:26.123Z,8.93
2018-11-13T22:22:56.388Z,7.20
2018-11-13T22:25:25.912Z,7.30
2018-11-13T22:27:55.940Z,9.57
2018-11-13T22:30:25.898Z,8.33
2018-11-13T22:32:55.435Z,8.10
2018-11-13T22:35:24.393Z,9.10
2018-11-13T22:37:53.184Z,8.70
2018-11-13T22:40:23.238Z,7.43
2018-11-13T22:42:52.145Z,6.90
2018-11-13T22:45:24.101Z,10.33
2018-11-13T22:47:53.290Z,8.77
2018-11-13T22:50:23.415Z,8.67
2018-11-13T22:52:52.513Z,9.43
2018-11-13T22:55:21.391Z,7.27
2018-11-13T22:57:51.514Z,10.00
2018-11-13T23:00:30.495Z,12.10
2018-11-13T23:02:59.235Z,9.37
2018-11-13T23:05:28.098Z,9.47
2018-11-13T23:07:56.846Z,7.33
2018-11-13T23:10:25.697Z,10.17
2018-11-13T23:12:54.490Z,12.53
2018-11-13T23:15:23.258Z,13.33
2018-11-13T23:17:51.991Z,13.83
2018-11-13T23:20:21.343Z,8.70
2018-11-13T23:22:50.221Z,9.73
2018-11-13T23:25:19.857Z,6.67
2018-11-13T23:27:49.813Z,12.47
2018-11-13T23:30:22.026Z,8.97
2018-11-13T23:32:51.102Z,12.83
2018-11-13T23:35:20.040Z,10.60
2018-11-13T23:37:50.164Z,8.07
2018-11-13T23:40:20.187Z,10.10
2018-11-13T23:42:49.233Z,9.23
2018-11-13T23:45:19.028Z,10.23
2018-11-13T23:47:48.140Z,14.53
2018-11-13T23:50:17.008Z,9.93
2018-11-13T23:52:46.513Z,10.50
2018-11-13T23:55:15.786Z,13.07
2018-11-13T23:57:45.150Z,10.63
